Santa Isabel, Brazil
Current Conditions -  °F | °C
As of 8:00 AM on Thursday 23 Oct 2014 (Local Time) from SBAN Reporting Station
Broken Clouds Broken Clouds  
Wind Chill: 66°   Ceiling: 10000
Heat Index: 66°   Visibility: 6mi
Dew Point: 61°   Wind: 5mph
Humidity: 83%   Direction: 70°ENE
Pressure: 30.18"   Gusts: NA
Location:  15.3°S, 49.43°W
Report Text: SBAN 231000Z 07004KT 9999 FEW030 BKN100 19/16 Q1022
Loading
Personal Weather Stations






























Interactive Weather Map
Tropical Storm Tracking
New forecast layout! Learn more

10-Day Weather Forecast

Advertisements
Track Severe Weather on mobile